sensor_id;sensor_type;location;lat;lon;timestamp;P1;durP1;ratioP1;P2;durP2;ratioP2
70733;SDS011;58320;48.804;9.252;2024-03-02T00:00:08;18.83;;;10.45;;
70733;SDS011;58320;48.804;9.252;2024-03-02T00:02:42;19.80;;;10.77;;
70733;SDS011;58320;48.804;9.252;2024-03-02T00:05:15;18.92;;;10.57;;
70733;SDS011;58320;48.804;9.252;2024-03-02T00:07:53;17.98;;;10.73;;
70733;SDS011;58320;48.804;9.252;2024-03-02T00:10:22;19.60;;;10.98;;
70733;SDS011;58320;48.804;9.252;2024-03-02T00:12:54;19.33;;;10.88;;
70733;SDS011;58320;48.804;9.252;2024-03-02T00:17:56;19.83;;;10.40;;
70733;SDS011;58320;48.804;9.252;2024-03-02T00:20:22;21.50;;;11.18;;
70733;SDS011;58320;48.804;9.252;2024-03-02T00:22:49;18.13;;;9.13;;
70733;SDS011;58320;48.804;9.252;2024-03-02T00:25:15;17.55;;;10.40;;
70733;SDS011;58320;48.804;9.252;2024-03-02T00:27:41;18.03;;;9.87;;
70733;SDS011;58320;48.804;9.252;2024-03-02T00:30:54;19.23;;;10.05;;
70733;SDS011;58320;48.804;9.252;2024-03-02T00:33:23;19.63;;;10.40;;
70733;SDS011;58320;48.804;9.252;2024-03-02T00:35:51;19.27;;;12.00;;
70733;SDS011;58320;48.804;9.252;2024-03-02T00:38:18;20.77;;;11.37;;
70733;SDS011;58320;48.804;9.252;2024-03-02T00:40:44;20.13;;;10.80;;
70733;SDS011;58320;48.804;9.252;2024-03-02T00:43:43;20.88;;;10.38;;
70733;SDS011;58320;48.804;9.252;2024-03-02T00:46:11;20.77;;;11.18;;
70733;SDS011;58320;48.804;9.252;2024-03-02T00:48:39;19.23;;;11.23;;
70733;SDS011;58320;48.804;9.252;2024-03-02T00:51:15;21.38;;;11.80;;
70733;SDS011;58320;48.804;9.252;2024-03-02T00:53:41;20.13;;;10.55;;
70733;SDS011;58320;48.804;9.252;2024-03-02T00:56:09;18.97;;;10.47;;
70733;SDS011;58320;48.804;9.252;2024-03-02T00:58:36;19.65;;;11.10;;
70733;SDS011;58320;48.804;9.252;2024-03-02T01:01:03;22.83;;;10.68;;
70733;SDS011;58320;48.804;9.252;2024-03-02T01:03:29;19.93;;;11.00;;
70733;SDS011;58320;48.804;9.252;2024-03-02T01:05:56;20.30;;;11.10;;
70733;SDS011;58320;48.804;9.252;2024-03-02T01:08:22;18.55;;;11.00;;
70733;SDS011;58320;48.804;9.252;2024-03-02T01:10:48;18.48;;;10.50;;
70733;SDS011;58320;48.804;9.252;2024-03-02T01:13:14;22.20;;;10.87;;
70733;SDS011;58320;48.804;9.252;2024-03-02T01:15:40;23.25;;;11.98;;
70733;SDS011;58320;48.804;9.252;2024-03-02T01:18:06;21.27;;;10.90;;
70733;SDS011;58320;48.804;9.252;2024-03-02T01:20:32;17.70;;;9.82;;
70733;SDS011;58320;48.804;9.252;2024-03-02T01:22:57;21.08;;;11.32;;
70733;SDS011;58320;48.804;9.252;2024-03-02T01:25:23;18.83;;;9.93;;
70733;SDS011;58320;48.804;9.252;2024-03-02T01:27:49;18.15;;;9.18;;
70733;SDS011;58320;48.804;9.252;2024-03-02T01:30:15;20.33;;;10.47;;
70733;SDS011;58320;48.804;9.252;2024-03-02T01:32:41;20.05;;;10.73;;
70733;SDS011;58320;48.804;9.252;2024-03-02T01:35:07;21.33;;;11.40;;
70733;SDS011;58320;48.804;9.252;2024-03-02T01:37:33;18.40;;;10.10;;
70733;SDS011;58320;48.804;9.252;2024-03-02T01:39:58;20.02;;;10.93;;
70733;SDS011;58320;48.804;9.252;2024-03-02T01:42:24;21.60;;;11.30;;
70733;SDS011;58320;48.804;9.252;2024-03-02T01:44:50;17.95;;;10.55;;
70733;SDS011;58320;48.804;9.252;2024-03-02T01:47:16;19.25;;;10.43;;
70733;SDS011;58320;48.804;9.252;2024-03-02T01:49:42;19.23;;;10.57;;
70733;SDS011;58320;48.804;9.252;2024-03-02T01:52:08;19.63;;;10.13;;
70733;SDS011;58320;48.804;9.252;2024-03-02T01:54:34;19.27;;;10.82;;
70733;SDS011;58320;48.804;9.252;2024-03-02T01:57:00;20.93;;;10.80;;
70733;SDS011;58320;48.804;9.252;2024-03-02T01:59:25;20.63;;;10.98;;
70733;SDS011;58320;48.804;9.252;2024-03-02T02:01:52;21.08;;;10.82;;
70733;SDS011;58320;48.804;9.252;2024-03-02T02:04:18;21.60;;;11.83;;
70733;SDS011;58320;48.804;9.252;2024-03-02T02:06:46;19.77;;;11.40;;
70733;SDS011;58320;48.804;9.252;2024-03-02T02:09:12;19.42;;;10.95;;
70733;SDS011;58320;48.804;9.252;2024-03-02T02:11:38;22.23;;;11.43;;
70733;SDS011;58320;48.804;9.252;2024-03-02T02:14:03;22.13;;;12.15;;
70733;SDS011;58320;48.804;9.252;2024-03-02T02:16:31;21.50;;;11.80;;
70733;SDS011;58320;48.804;9.252;2024-03-02T02:18:56;21.60;;;11.73;;
70733;SDS011;58320;48.804;9.252;2024-03-02T02:21:22;20.98;;;11.27;;
70733;SDS011;58320;48.804;9.252;2024-03-02T02:23:48;24.23;;;12.83;;
70733;SDS011;58320;48.804;9.252;2024-03-02T02:26:15;23.37;;;12.03;;
70733;SDS011;58320;48.804;9.252;2024-03-02T02:28:41;22.42;;;11.90;;
70733;SDS011;58320;48.804;9.252;2024-03-02T02:31:12;21.42;;;11.68;;
70733;SDS011;58320;48.804;9.252;2024-03-02T02:33:41;21.35;;;11.35;;
70733;SDS011;58320;48.804;9.252;2024-03-02T02:36:07;22.73;;;12.13;;
70733;SDS011;58320;48.804;9.252;2024-03-02T02:38:36;22.38;;;11.35;;
70733;SDS011;58320;48.804;9.252;2024-03-02T02:41:06;24.13;;;12.45;;
70733;SDS011;58320;48.804;9.252;2024-03-02T02:43:32;25.45;;;12.65;;
70733;SDS011;58320;48.804;9.252;2024-03-02T02:45:57;24.77;;;12.83;;
70733;SDS011;58320;48.804;9.252;2024-03-02T02:48:23;22.00;;;12.13;;
70733;SDS011;58320;48.804;9.252;2024-03-02T02:50:49;23.80;;;12.27;;
70733;SDS011;58320;48.804;9.252;2024-03-02T02:53:14;23.88;;;11.80;;
70733;SDS011;58320;48.804;9.252;2024-03-02T02:55:40;27.70;;;13.70;;
70733;SDS011;58320;48.804;9.252;2024-03-02T02:58:08;25.55;;;12.75;;
70733;SDS011;58320;48.804;9.252;2024-03-02T03:00:34;23.67;;;12.23;;
70733;SDS011;58320;48.804;9.252;2024-03-02T03:03:01;26.17;;;12.85;;
70733;SDS011;58320;48.804;9.252;2024-03-02T03:05:27;24.15;;;12.75;;
70733;SDS011;58320;48.804;9.252;2024-03-02T03:07:53;23.00;;;12.33;;
70733;SDS011;58320;48.804;9.252;2024-03-02T03:10:19;23.20;;;12.43;;
70733;SDS011;58320;48.804;9.252;2024-03-02T03:12:47;22.70;;;12.25;;
70733;SDS011;58320;48.804;9.252;2024-03-02T03:15:12;23.80;;;11.63;;
70733;SDS011;58320;48.804;9.252;2024-03-02T03:17:39;22.98;;;12.18;;
70733;SDS011;58320;48.804;9.252;2024-03-02T03:20:05;21.48;;;11.27;;
70733;SDS011;58320;48.804;9.252;2024-03-02T03:22:35;25.05;;;11.68;;
70733;SDS011;58320;48.804;9.252;2024-03-02T03:25:01;21.47;;;10.63;;
70733;SDS011;58320;48.804;9.252;2024-03-02T03:27:28;24.88;;;12.40;;
70733;SDS011;58320;48.804;9.252;2024-03-02T03:29:54;21.48;;;11.82;;
70733;SDS011;58320;48.804;9.252;2024-03-02T03:32:20;24.37;;;12.10;;
70733;SDS011;58320;48.804;9.252;2024-03-02T03:34:45;24.13;;;11.77;;
70733;SDS011;58320;48.804;9.252;2024-03-02T03:37:12;22.17;;;11.10;;
70733;SDS011;58320;48.804;9.252;2024-03-02T03:39:38;22.80;;;11.40;;
70733;SDS011;58320;48.804;9.252;2024-03-02T03:42:04;24.92;;;12.70;;
70733;SDS011;58320;48.804;9.252;2024-03-02T03:44:30;22.55;;;12.52;;
70733;SDS011;58320;48.804;9.252;2024-03-02T03:46:56;20.70;;;11.17;;
70733;SDS011;58320;48.804;9.252;2024-03-02T03:49:21;23.27;;;12.38;;
70733;SDS011;58320;48.804;9.252;2024-03-02T03:51:47;23.63;;;12.00;;
70733;SDS011;58320;48.804;9.252;2024-03-02T03:54:13;24.58;;;12.38;;
70733;SDS011;58320;48.804;9.252;2024-03-02T03:56:39;26.63;;;12.73;;
70733;SDS011;58320;48.804;9.252;2024-03-02T03:59:04;26.17;;;13.40;;
70733;SDS011;58320;48.804;9.252;2024-03-02T04:03:43;28.47;;;13.67;;
70733;SDS011;58320;48.804;9.252;2024-03-02T04:06:08;24.88;;;12.43;;
70733;SDS011;58320;48.804;9.252;2024-03-02T04:08:34;24.07;;;12.90;;
70733;SDS011;58320;48.804;9.252;2024-03-02T04:11:00;29.40;;;13.40;;
70733;SDS011;58320;48.804;9.252;2024-03-02T04:13:27;24.58;;;12.15;;
70733;SDS011;58320;48.804;9.252;2024-03-02T04:15:53;26.30;;;13.13;;
70733;SDS011;58320;48.804;9.252;2024-03-02T04:18:19;27.63;;;13.75;;
70733;SDS011;58320;48.804;9.252;2024-03-02T04:20:44;26.43;;;13.27;;
70733;SDS011;58320;48.804;9.252;2024-03-02T04:23:10;27.20;;;13.55;;
70733;SDS011;58320;48.804;9.252;2024-03-02T04:25:36;26.20;;;13.17;;
70733;SDS011;58320;48.804;9.252;2024-03-02T04:28:01;28.10;;;13.75;;
70733;SDS011;58320;48.804;9.252;2024-03-02T04:30:27;27.17;;;12.67;;
70733;SDS011;58320;48.804;9.252;2024-03-02T04:32:53;28.05;;;13.65;;
70733;SDS011;58320;48.804;9.252;2024-03-02T04:35:18;27.20;;;13.67;;
70733;SDS011;58320;48.804;9.252;2024-03-02T04:37:44;27.88;;;13.75;;
70733;SDS011;58320;48.804;9.252;2024-03-02T04:40:10;25.23;;;12.90;;
70733;SDS011;58320;48.804;9.252;2024-03-02T04:42:36;26.58;;;13.48;;
70733;SDS011;58320;48.804;9.252;2024-03-02T04:45:02;28.50;;;14.23;;
70733;SDS011;58320;48.804;9.252;2024-03-02T04:47:28;25.23;;;12.80;;
70733;SDS011;58320;48.804;9.252;2024-03-02T04:49:54;27.92;;;13.57;;
70733;SDS011;58320;48.804;9.252;2024-03-02T04:52:19;25.92;;;12.63;;
70733;SDS011;58320;48.804;9.252;2024-03-02T04:54:45;28.57;;;13.93;;
70733;SDS011;58320;48.804;9.252;2024-03-02T04:57:29;25.98;;;11.82;;
70733;SDS011;58320;48.804;9.252;2024-03-02T04:59:55;27.20;;;13.33;;
70733;SDS011;58320;48.804;9.252;2024-03-02T05:02:20;28.08;;;13.52;;
70733;SDS011;58320;48.804;9.252;2024-03-02T05:04:46;30.03;;;13.00;;
70733;SDS011;58320;48.804;9.252;2024-03-02T05:07:13;25.65;;;12.55;;
70733;SDS011;58320;48.804;9.252;2024-03-02T05:09:39;24.38;;;11.85;;
70733;SDS011;58320;48.804;9.252;2024-03-02T05:12:05;26.75;;;13.38;;
70733;SDS011;58320;48.804;9.252;2024-03-02T05:14:34;25.33;;;13.30;;
70733;SDS011;58320;48.804;9.252;2024-03-02T05:16:59;24.87;;;12.70;;
70733;SDS011;58320;48.804;9.252;2024-03-02T05:19:25;25.15;;;12.35;;
70733;SDS011;58320;48.804;9.252;2024-03-02T05:21:51;22.50;;;11.77;;
70733;SDS011;58320;48.804;9.252;2024-03-02T05:24:16;24.20;;;12.45;;
70733;SDS011;58320;48.804;9.252;2024-03-02T05:26:42;29.13;;;12.93;;
70733;SDS011;58320;48.804;9.252;2024-03-02T05:29:08;24.40;;;12.43;;
70733;SDS011;58320;48.804;9.252;2024-03-02T05:31:34;25.10;;;12.47;;
70733;SDS011;58320;48.804;9.252;2024-03-02T05:34:00;30.27;;;13.75;;
70733;SDS011;58320;48.804;9.252;2024-03-02T05:36:26;30.38;;;15.30;;
70733;SDS011;58320;48.804;9.252;2024-03-02T05:38:52;27.40;;;13.20;;
70733;SDS011;58320;48.804;9.252;2024-03-02T05:41:17;26.30;;;13.40;;
70733;SDS011;58320;48.804;9.252;2024-03-02T05:43:43;27.83;;;13.67;;
70733;SDS011;58320;48.804;9.252;2024-03-02T05:46:09;28.80;;;13.02;;
70733;SDS011;58320;48.804;9.252;2024-03-02T05:48:34;31.00;;;15.40;;
70733;SDS011;58320;48.804;9.252;2024-03-02T05:51:00;28.15;;;14.32;;
70733;SDS011;58320;48.804;9.252;2024-03-02T05:53:26;32.77;;;14.77;;
70733;SDS011;58320;48.804;9.252;2024-03-02T05:55:51;31.77;;;15.30;;
70733;SDS011;58320;48.804;9.252;2024-03-02T05:58:20;30.17;;;14.65;;
70733;SDS011;58320;48.804;9.252;2024-03-02T06:01:08;32.83;;;15.02;;
70733;SDS011;58320;48.804;9.252;2024-03-02T06:03:33;32.97;;;15.23;;
70733;SDS011;58320;48.804;9.252;2024-03-02T06:05:59;33.22;;;15.75;;
70733;SDS011;58320;48.804;9.252;2024-03-02T06:08:25;29.30;;;15.33;;
70733;SDS011;58320;48.804;9.252;2024-03-02T06:10:50;31.65;;;14.82;;
70733;SDS011;58320;48.804;9.252;2024-03-02T06:13:16;28.97;;;13.93;;
70733;SDS011;58320;48.804;9.252;2024-03-02T06:15:42;29.92;;;14.27;;
70733;SDS011;58320;48.804;9.252;2024-03-02T06:18:08;30.95;;;14.93;;
70733;SDS011;58320;48.804;9.252;2024-03-02T06:20:34;33.00;;;15.60;;
70733;SDS011;58320;48.804;9.252;2024-03-02T06:23:00;31.70;;;14.32;;
70733;SDS011;58320;48.804;9.252;2024-03-02T06:25:26;31.23;;;15.32;;
70733;SDS011;58320;48.804;9.252;2024-03-02T06:27:51;35.17;;;15.77;;
70733;SDS011;58320;48.804;9.252;2024-03-02T06:30:17;31.17;;;14.93;;
70733;SDS011;58320;48.804;9.252;2024-03-02T06:32:43;37.23;;;15.77;;
70733;SDS011;58320;48.804;9.252;2024-03-02T06:35:09;30.03;;;14.63;;
70733;SDS011;58320;48.804;9.252;2024-03-02T06:37:35;30.05;;;14.10;;
70733;SDS011;58320;48.804;9.252;2024-03-02T06:40:03;33.90;;;14.77;;
70733;SDS011;58320;48.804;9.252;2024-03-02T06:42:29;28.90;;;14.13;;
70733;SDS011;58320;48.804;9.252;2024-03-02T06:44:58;27.38;;;12.57;;
70733;SDS011;58320;48.804;9.252;2024-03-02T06:47:24;33.08;;;13.65;;
70733;SDS011;58320;48.804;9.252;2024-03-02T06:49:50;25.65;;;12.18;;
70733;SDS011;58320;48.804;9.252;2024-03-02T06:52:16;25.10;;;12.17;;
70733;SDS011;58320;48.804;9.252;2024-03-02T06:54:41;21.85;;;12.23;;
70733;SDS011;58320;48.804;9.252;2024-03-02T06:57:07;25.67;;;13.03;;
70733;SDS011;58320;48.804;9.252;2024-03-02T06:59:33;24.33;;;12.40;;
70733;SDS011;58320;48.804;9.252;2024-03-02T07:01:59;23.83;;;12.45;;
70733;SDS011;58320;48.804;9.252;2024-03-02T07:04:25;24.40;;;12.57;;
70733;SDS011;58320;48.804;9.252;2024-03-02T07:06:51;21.23;;;11.47;;
70733;SDS011;58320;48.804;9.252;2024-03-02T07:09:17;21.07;;;11.73;;
70733;SDS011;58320;48.804;9.252;2024-03-02T07:11:42;22.97;;;12.20;;
70733;SDS011;58320;48.804;9.252;2024-03-02T07:14:08;19.92;;;10.65;;
70733;SDS011;58320;48.804;9.252;2024-03-02T07:16:36;20.90;;;11.27;;
70733;SDS011;58320;48.804;9.252;2024-03-02T07:19:03;21.60;;;11.38;;
70733;SDS011;58320;48.804;9.252;2024-03-02T07:21:29;19.37;;;10.33;;
70733;SDS011;58320;48.804;9.252;2024-03-02T07:23:54;19.90;;;10.60;;
70733;SDS011;58320;48.804;9.252;2024-03-02T07:26:20;19.67;;;10.27;;
70733;SDS011;58320;48.804;9.252;2024-03-02T07:28:47;17.25;;;9.23;;
70733;SDS011;58320;48.804;9.252;2024-03-02T07:31:14;17.33;;;9.77;;
70733;SDS011;58320;48.804;9.252;2024-03-02T07:33:40;17.65;;;9.52;;
70733;SDS011;58320;48.804;9.252;2024-03-02T07:36:06;16.33;;;9.25;;
70733;SDS011;58320;48.804;9.252;2024-03-02T07:38:33;17.07;;;8.07;;
70733;SDS011;58320;48.804;9.252;2024-03-02T07:41:00;14.30;;;7.57;;
70733;SDS011;58320;48.804;9.252;2024-03-02T07:43:25;15.32;;;9.10;;
70733;SDS011;58320;48.804;9.252;2024-03-02T07:45:51;14.50;;;8.48;;
70733;SDS011;58320;48.804;9.252;2024-03-02T07:48:17;16.63;;;8.43;;
70733;SDS011;58320;48.804;9.252;2024-03-02T07:50:43;15.10;;;8.15;;
70733;SDS011;58320;48.804;9.252;2024-03-02T07:53:09;16.15;;;8.82;;
70733;SDS011;58320;48.804;9.252;2024-03-02T07:55:35;13.97;;;8.60;;
70733;SDS011;58320;48.804;9.252;2024-03-02T07:58:01;14.80;;;8.52;;
70733;SDS011;58320;48.804;9.252;2024-03-02T08:00:27;15.52;;;8.95;;
70733;SDS011;58320;48.804;9.252;2024-03-02T08:02:53;13.32;;;8.02;;
70733;SDS011;58320;48.804;9.252;2024-03-02T08:05:19;14.03;;;8.17;;
70733;SDS011;58320;48.804;9.252;2024-03-02T08:07:45;14.45;;;7.75;;
70733;SDS011;58320;48.804;9.252;2024-03-02T08:10:12;17.20;;;7.85;;
70733;SDS011;58320;48.804;9.252;2024-03-02T08:12:38;14.63;;;8.15;;
70733;SDS011;58320;48.804;9.252;2024-03-02T08:15:04;13.43;;;8.52;;
70733;SDS011;58320;48.804;9.252;2024-03-02T08:17:30;13.57;;;8.17;;
70733;SDS011;58320;48.804;9.252;2024-03-02T08:19:56;14.40;;;7.95;;
70733;SDS011;58320;48.804;9.252;2024-03-02T08:22:23;13.07;;;7.68;;
70733;SDS011;58320;48.804;9.252;2024-03-02T08:24:51;14.55;;;7.93;;
70733;SDS011;58320;48.804;9.252;2024-03-02T08:27:17;15.80;;;8.13;;
70733;SDS011;58320;48.804;9.252;2024-03-02T08:29:43;14.13;;;7.63;;
70733;SDS011;58320;48.804;9.252;2024-03-02T08:32:09;12.40;;;6.77;;
70733;SDS011;58320;48.804;9.252;2024-03-02T08:34:35;10.98;;;6.43;;
70733;SDS011;58320;48.804;9.252;2024-03-02T08:37:01;12.63;;;7.18;;
70733;SDS011;58320;48.804;9.252;2024-03-02T08:39:27;13.07;;;7.53;;
70733;SDS011;58320;48.804;9.252;2024-03-02T08:41:53;13.38;;;7.25;;
70733;SDS011;58320;48.804;9.252;2024-03-02T08:44:19;10.90;;;6.85;;
70733;SDS011;58320;48.804;9.252;2024-03-02T08:46:45;11.43;;;6.75;;
70733;SDS011;58320;48.804;9.252;2024-03-02T08:49:11;12.43;;;6.93;;
70733;SDS011;58320;48.804;9.252;2024-03-02T08:51:38;11.95;;;6.97;;
70733;SDS011;58320;48.804;9.252;2024-03-02T08:54:03;11.70;;;6.68;;
70733;SDS011;58320;48.804;9.252;2024-03-02T08:56:30;10.50;;;6.40;;
70733;SDS011;58320;48.804;9.252;2024-03-02T08:58:56;11.48;;;6.90;;
70733;SDS011;58320;48.804;9.252;2024-03-02T09:01:22;11.70;;;6.90;;
70733;SDS011;58320;48.804;9.252;2024-03-02T09:03:48;10.20;;;6.50;;
70733;SDS011;58320;48.804;9.252;2024-03-02T09:06:16;9.63;;;6.03;;
70733;SDS011;58320;48.804;9.252;2024-03-02T09:08:43;9.27;;;5.68;;
70733;SDS011;58320;48.804;9.252;2024-03-02T09:11:09;10.07;;;5.93;;
70733;SDS011;58320;48.804;9.252;2024-03-02T09:13:35;11.23;;;6.43;;
70733;SDS011;58320;48.804;9.252;2024-03-02T09:16:02;10.85;;;6.38;;
70733;SDS011;58320;48.804;9.252;2024-03-02T09:18:29;10.05;;;6.03;;
70733;SDS011;58320;48.804;9.252;2024-03-02T09:20:54;13.00;;;5.95;;
70733;SDS011;58320;48.804;9.252;2024-03-02T09:23:20;10.77;;;6.50;;
70733;SDS011;58320;48.804;9.252;2024-03-02T09:25:46;11.32;;;6.00;;
70733;SDS011;58320;48.804;9.252;2024-03-02T09:28:12;10.47;;;5.73;;
70733;SDS011;58320;48.804;9.252;2024-03-02T09:30:37;11.63;;;5.83;;
70733;SDS011;58320;48.804;9.252;2024-03-02T09:33:03;9.23;;;5.85;;
70733;SDS011;58320;48.804;9.252;2024-03-02T09:35:29;8.63;;;4.73;;
70733;SDS011;58320;48.804;9.252;2024-03-02T09:37:55;10.93;;;4.90;;
70733;SDS011;58320;48.804;9.252;2024-03-02T09:40:24;6.93;;;4.43;;
70733;SDS011;58320;48.804;9.252;2024-03-02T09:42:50;6.93;;;4.10;;
70733;SDS011;58320;48.804;9.252;2024-03-02T09:45:22;8.90;;;4.55;;
70733;SDS011;58320;48.804;9.252;2024-03-02T09:47:49;8.43;;;4.57;;
70733;SDS011;58320;48.804;9.252;2024-03-02T09:50:15;6.30;;;3.85;;
70733;SDS011;58320;48.804;9.252;2024-03-02T09:52:47;7.10;;;4.03;;
70733;SDS011;58320;48.804;9.252;2024-03-02T09:55:15;6.33;;;4.00;;
70733;SDS011;58320;48.804;9.252;2024-03-02T09:57:42;6.57;;;3.88;;
70733;SDS011;58320;48.804;9.252;2024-03-02T10:00:08;6.05;;;3.60;;
70733;SDS011;58320;48.804;9.252;2024-03-02T10:02:39;6.32;;;3.95;;
70733;SDS011;58320;48.804;9.252;2024-03-02T10:05:07;6.20;;;3.50;;
70733;SDS011;58320;48.804;9.252;2024-03-02T10:07:33;8.60;;;4.07;;
70733;SDS011;58320;48.804;9.252;2024-03-02T10:10:00;8.88;;;4.47;;
70733;SDS011;58320;48.804;9.252;2024-03-02T10:12:40;5.85;;;3.47;;
70733;SDS011;58320;48.804;9.252;2024-03-02T10:15:07;5.90;;;3.73;;
70733;SDS011;58320;48.804;9.252;2024-03-02T10:17:34;5.45;;;3.35;;
70733;SDS011;58320;48.804;9.252;2024-03-02T10:20:14;6.20;;;3.75;;
70733;SDS011;58320;48.804;9.252;2024-03-02T10:22:54;5.70;;;3.38;;
70733;SDS011;58320;48.804;9.252;2024-03-02T10:25:38;6.20;;;3.00;;
70733;SDS011;58320;48.804;9.252;2024-03-02T10:28:05;6.88;;;3.70;;
70733;SDS011;58320;48.804;9.252;2024-03-02T10:30:31;7.30;;;3.53;;
70733;SDS011;58320;48.804;9.252;2024-03-02T10:32:58;5.50;;;3.33;;
70733;SDS011;58320;48.804;9.252;2024-03-02T10:35:25;5.40;;;3.30;;
70733;SDS011;58320;48.804;9.252;2024-03-02T10:37:54;6.10;;;3.60;;
70733;SDS011;58320;48.804;9.252;2024-03-02T10:40:23;6.10;;;3.55;;
70733;SDS011;58320;48.804;9.252;2024-03-02T10:42:52;6.22;;;3.83;;
70733;SDS011;58320;48.804;9.252;2024-03-02T10:45:18;6.75;;;3.75;;
70733;SDS011;58320;48.804;9.252;2024-03-02T10:47:46;5.90;;;3.30;;
70733;SDS011;58320;48.804;9.252;2024-03-02T10:50:12;5.17;;;3.10;;
70733;SDS011;58320;48.804;9.252;2024-03-02T10:52:38;5.85;;;3.30;;
70733;SDS011;58320;48.804;9.252;2024-03-02T10:55:05;5.97;;;3.67;;
70733;SDS011;58320;48.804;9.252;2024-03-02T10:57:53;5.63;;;3.30;;
70733;SDS011;58320;48.804;9.252;2024-03-02T11:00:21;5.10;;;3.22;;
70733;SDS011;58320;48.804;9.252;2024-03-02T11:02:58;5.70;;;3.70;;
70733;SDS011;58320;48.804;9.252;2024-03-02T11:05:37;5.60;;;3.47;;
70733;SDS011;58320;48.804;9.252;2024-03-02T11:08:07;5.63;;;3.15;;
70733;SDS011;58320;48.804;9.252;2024-03-02T11:10:34;5.78;;;3.03;;
70733;SDS011;58320;48.804;9.252;2024-03-02T11:13:09;4.47;;;2.72;;
70733;SDS011;58320;48.804;9.252;2024-03-02T11:15:37;6.67;;;3.20;;
70733;SDS011;58320;48.804;9.252;2024-03-02T11:18:05;5.80;;;3.92;;
70733;SDS011;58320;48.804;9.252;2024-03-02T11:20:35;4.38;;;2.90;;
70733;SDS011;58320;48.804;9.252;2024-03-02T11:23:07;5.20;;;3.00;;
70733;SDS011;58320;48.804;9.252;2024-03-02T11:25:34;4.97;;;3.08;;
70733;SDS011;58320;48.804;9.252;2024-03-02T11:28:01;5.03;;;3.00;;
70733;SDS011;58320;48.804;9.252;2024-03-02T11:32:57;4.93;;;3.00;;
70733;SDS011;58320;48.804;9.252;2024-03-02T11:35:34;12.25;;;6.85;;
70733;SDS011;58320;48.804;9.252;2024-03-02T11:38:01;10.83;;;5.17;;
70733;SDS011;58320;48.804;9.252;2024-03-02T11:40:28;3.60;;;2.00;;
70733;SDS011;58320;48.804;9.252;2024-03-02T11:42:55;4.30;;;1.70;;
70733;SDS011;58320;48.804;9.252;2024-03-02T11:45:22;25.17;;;10.35;;
70733;SDS011;58320;48.804;9.252;2024-03-02T11:47:56;5.30;;;2.75;;
70733;SDS011;58320;48.804;9.252;2024-03-02T11:50:35;3.20;;;1.87;;
70733;SDS011;58320;48.804;9.252;2024-03-02T11:53:15;2.97;;;1.50;;
70733;SDS011;58320;48.804;9.252;2024-03-02T11:55:42;2.90;;;1.40;;
70733;SDS011;58320;48.804;9.252;2024-03-02T11:58:11;2.63;;;1.38;;
70733;SDS011;58320;48.804;9.252;2024-03-02T12:00:38;2.58;;;1.20;;
70733;SDS011;58320;48.804;9.252;2024-03-02T12:05:29;2.65;;;1.30;;
70733;SDS011;58320;48.804;9.252;2024-03-02T12:07:59;2.78;;;1.20;;
70733;SDS011;58320;48.804;9.252;2024-03-02T12:10:30;2.67;;;1.30;;
70733;SDS011;58320;48.804;9.252;2024-03-02T12:12:57;2.40;;;1.30;;
70733;SDS011;58320;48.804;9.252;2024-03-02T12:15:27;3.10;;;1.52;;
70733;SDS011;58320;48.804;9.252;2024-03-02T12:17:58;2.67;;;1.00;;
70733;SDS011;58320;48.804;9.252;2024-03-02T12:20:26;2.28;;;0.93;;
70733;SDS011;58320;48.804;9.252;2024-03-02T12:22:54;2.20;;;1.00;;
70733;SDS011;58320;48.804;9.252;2024-03-02T12:25:23;2.15;;;1.00;;
70733;SDS011;58320;48.804;9.252;2024-03-02T12:27:50;1.70;;;0.93;;
70733;SDS011;58320;48.804;9.252;2024-03-02T12:30:19;1.90;;;0.80;;
70733;SDS011;58320;48.804;9.252;2024-03-02T12:32:46;2.42;;;0.82;;
70733;SDS011;58320;48.804;9.252;2024-03-02T12:35:12;1.90;;;0.87;;
70733;SDS011;58320;48.804;9.252;2024-03-02T12:37:45;2.23;;;0.97;;
70733;SDS011;58320;48.804;9.252;2024-03-02T12:40:13;2.75;;;1.25;;
70733;SDS011;58320;48.804;9.252;2024-03-02T12:42:42;2.95;;;1.00;;
70733;SDS011;58320;48.804;9.252;2024-03-02T12:45:08;2.20;;;0.90;;
70733;SDS011;58320;48.804;9.252;2024-03-02T12:47:34;2.75;;;1.13;;
70733;SDS011;58320;48.804;9.252;2024-03-02T12:50:00;2.80;;;0.90;;
70733;SDS011;58320;48.804;9.252;2024-03-02T12:52:28;2.05;;;0.80;;
70733;SDS011;58320;48.804;9.252;2024-03-02T12:54:54;1.93;;;0.80;;
70733;SDS011;58320;48.804;9.252;2024-03-02T12:57:26;2.30;;;1.00;;
70733;SDS011;58320;48.804;9.252;2024-03-02T12:59:58;1.90;;;0.90;;
70733;SDS011;58320;48.804;9.252;2024-03-02T13:02:34;1.90;;;0.85;;
70733;SDS011;58320;48.804;9.252;2024-03-02T13:05:00;1.75;;;0.65;;
70733;SDS011;58320;48.804;9.252;2024-03-02T13:07:27;1.73;;;0.70;;
70733;SDS011;58320;48.804;9.252;2024-03-02T13:09:54;2.07;;;1.10;;
70733;SDS011;58320;48.804;9.252;2024-03-02T13:12:21;2.95;;;1.20;;
70733;SDS011;58320;48.804;9.252;2024-03-02T13:14:49;2.10;;;0.77;;
70733;SDS011;58320;48.804;9.252;2024-03-02T13:17:18;2.00;;;0.98;;
70733;SDS011;58320;48.804;9.252;2024-03-02T13:19:57;2.17;;;0.80;;
70733;SDS011;58320;48.804;9.252;2024-03-02T13:22:24;2.37;;;0.90;;
70733;SDS011;58320;48.804;9.252;2024-03-02T13:24:51;2.10;;;1.00;;
70733;SDS011;58320;48.804;9.252;2024-03-02T13:27:19;2.42;;;0.93;;
70733;SDS011;58320;48.804;9.252;2024-03-02T13:29:48;2.08;;;0.80;;
70733;SDS011;58320;48.804;9.252;2024-03-02T13:32:14;2.75;;;1.20;;
70733;SDS011;58320;48.804;9.252;2024-03-02T13:34:48;2.03;;;1.00;;
70733;SDS011;58320;48.804;9.252;2024-03-02T13:37:14;2.15;;;0.85;;
70733;SDS011;58320;48.804;9.252;2024-03-02T13:39:40;2.33;;;0.93;;
70733;SDS011;58320;48.804;9.252;2024-03-02T13:42:07;2.47;;;1.20;;
70733;SDS011;58320;48.804;9.252;2024-03-02T13:44:38;2.90;;;1.23;;
70733;SDS011;58320;48.804;9.252;2024-03-02T13:47:05;2.90;;;1.25;;
70733;SDS011;58320;48.804;9.252;2024-03-02T13:49:31;3.00;;;1.55;;
70733;SDS011;58320;48.804;9.252;2024-03-02T13:52:04;2.80;;;1.40;;
70733;SDS011;58320;48.804;9.252;2024-03-02T13:54:40;2.78;;;1.30;;
70733;SDS011;58320;48.804;9.252;2024-03-02T13:57:07;3.03;;;1.48;;
70733;SDS011;58320;48.804;9.252;2024-03-02T13:59:35;2.88;;;1.40;;
70733;SDS011;58320;48.804;9.252;2024-03-02T14:02:01;2.88;;;1.30;;
70733;SDS011;58320;48.804;9.252;2024-03-02T14:04:31;2.80;;;1.10;;
70733;SDS011;58320;48.804;9.252;2024-03-02T14:06:58;2.65;;;1.17;;
70733;SDS011;58320;48.804;9.252;2024-03-02T14:09:25;3.08;;;1.30;;
70733;SDS011;58320;48.804;9.252;2024-03-02T14:11:51;2.22;;;0.95;;
70733;SDS011;58320;48.804;9.252;2024-03-02T14:14:17;2.60;;;1.10;;
70733;SDS011;58320;48.804;9.252;2024-03-02T14:16:43;4.57;;;1.20;;
70733;SDS011;58320;48.804;9.252;2024-03-02T14:19:12;2.67;;;1.30;;
70733;SDS011;58320;48.804;9.252;2024-03-02T14:21:38;2.60;;;1.08;;
70733;SDS011;58320;48.804;9.252;2024-03-02T14:24:04;4.60;;;1.00;;
70733;SDS011;58320;48.804;9.252;2024-03-02T14:26:32;3.13;;;1.33;;
70733;SDS011;58320;48.804;9.252;2024-03-02T14:28:58;2.85;;;1.40;;
70733;SDS011;58320;48.804;9.252;2024-03-02T14:31:26;2.60;;;1.20;;
70733;SDS011;58320;48.804;9.252;2024-03-02T14:33:53;3.60;;;1.20;;
70733;SDS011;58320;48.804;9.252;2024-03-02T14:36:19;3.77;;;1.90;;
70733;SDS011;58320;48.804;9.252;2024-03-02T14:38:45;2.72;;;1.35;;
70733;SDS011;58320;48.804;9.252;2024-03-02T14:41:11;2.38;;;1.17;;
70733;SDS011;58320;48.804;9.252;2024-03-02T14:43:37;2.67;;;1.10;;